Time;durP1;ratioP1;P1;durP2;ratioP2;P2;SDS_P1;SDS_P2;PMS_P1;PMS_P2;Temp;Humidity;BMP_temperature;BMP_pressure;BME280_temperature;BME280_humidity;BME280_pressure;Samples;Min_cycle;Max_cycle;Signal;HPM_P1;HPM_P2
2022/10/03 00:02:07;;;;;;;13.02;7.00;;;16.40;99.90;;;;;;4973386;28;20049;-54
2022/10/03 00:04:36;;;;;;;11.23;5.97;;;16.60;99.90;;;;;;5037509;28;20040;-54
2022/10/03 00:07:15;;;;;;;9.00;4.82;;;16.60;99.90;;;;;;5074009;28;20460;-54
2022/10/03 00:09:59;;;;;;;10.20;4.30;;;16.70;99.90;;;;;;5073863;28;20495;-54
2022/10/03 00:12:46;;;;;;;13.13;4.05;;;16.80;99.90;;;;;;5069562;28;20025;-53
2022/10/03 00:15:26;;;;;;;9.98;3.35;;;16.90;99.90;;;;;;5072598;28;20040;-54
2022/10/03 00:18:12;;;;;;;7.78;3.35;;;17.00;99.90;;;;;;5070017;28;20448;-54
2022/10/03 00:21:26;;;;;;;12.48;3.20;;;17.00;99.90;;;;;;5069099;28;20055;-52
2022/10/03 00:23:56;;;;;;;6.20;2.70;;;17.10;99.90;;;;;;4991569;28;20085;-55
2022/10/03 00:26:50;;;;;;;11.65;2.97;;;17.10;99.90;;;;;;4987517;28;20030;-54
2022/10/03 00:30:09;;;;;;;13.05;7.45;;;17.20;99.90;;;;;;4991646;28;20038;-53
2022/10/03 00:32:46;;;;;;;18.40;10.38;;;17.20;99.90;;;;;;4895960;29;20427;-54
2022/10/03 00:35:32;;;;;;;12.07;6.43;;;17.00;99.90;;;;;;4896116;29;20683;-54
2022/10/03 00:38:32;;;;;;;8.50;4.07;;;16.80;99.90;;;;;;4895914;29;20041;-52
2022/10/03 00:41:28;;;;;;;7.40;4.10;;;16.60;99.90;;;;;;4893716;29;20141;-54
2022/10/03 00:44:09;;;;;;;6.18;3.30;;;16.80;99.90;;;;;;4841000;29;20045;-54
2022/10/03 00:47:05;;;;;;;5.30;3.45;;;16.90;99.90;;;;;;4847317;29;20467;-52
2022/10/03 00:49:34;;;;;;;7.45;3.17;;;16.90;99.90;;;;;;4835519;29;20034;-53
2022/10/03 00:51:59;;;;;;;5.85;2.92;;;16.90;99.90;;;;;;4844867;29;20037;-54
2022/10/03 00:54:46;;;;;;;4.85;2.78;;;17.00;99.90;;;;;;4840825;29;20042;-52
2022/10/03 00:57:18;;;;;;;9.13;3.10;;;17.00;99.90;;;;;;4840729;29;20050;-52
2022/10/03 00:59:47;;;;;;;;;;;17.00;99.90;;;;;;4860630;29;20070;-55
2022/10/03 01:02:27;;;;;;;6.57;3.38;;;17.10;99.90;;;;;;4895683;29;19931;-53
2022/10/03 01:05:28;;;;;;;5.38;2.95;;;17.10;99.90;;;;;;4885656;29;20135;-54
2022/10/03 01:08:11;;;;;;;6.28;3.30;;;17.10;99.90;;;;;;4902647;29;20036;-53
2022/10/03 01:10:52;;;;;;;5.28;2.58;;;17.10;99.90;;;;;;5021722;28;20140;-54
2022/10/03 01:13:47;;;;;;;5.05;2.65;;;17.20;99.90;;;;;;5029938;28;20028;-51
2022/10/03 01:16:30;;;;;;;5.88;3.28;;;17.30;99.90;;;;;;5030271;28;20034;-54
2022/10/03 01:19:25;;;;;;;6.07;2.85;;;17.30;99.90;;;;;;5029661;28;20060;-53
2022/10/03 01:22:00;;;;;;;4.95;2.83;;;17.30;99.90;;;;;;5066974;28;20044;-55
2022/10/03 01:24:32;;;;;;;7.82;3.08;;;17.20;99.90;;;;;;5068190;28;20507;-53
2022/10/03 01:27:06;;;;;;;9.23;3.38;;;17.00;99.90;;;;;;5072111;28;20475;-52
2022/10/03 01:33:04;;;;;;;4.68;3.60;;;16.80;99.90;;;;;;5067085;28;20492;-53
2022/10/03 01:35:52;;;;;;;6.50;3.65;;;16.80;99.90;;;;;;5071454;28;20024;-54
2022/10/03 01:38:35;;;;;;;6.07;3.75;;;16.80;99.90;;;;;;5072265;28;20028;-52
2022/10/03 01:41:22;;;;;;;9.73;4.55;;;16.70;99.90;;;;;;5070716;28;20037;-54
2022/10/03 01:43:59;;;;;;;7.00;4.20;;;16.60;99.90;;;;;;5047536;28;20036;-52
2022/10/03 01:46:48;;;;;;;5.15;3.72;;;16.60;99.90;;;;;;5063071;28;20115;-53
2022/10/03 01:49:32;;;;;;;6.10;4.30;;;16.60;99.90;;;;;;5071554;28;20112;-52
2022/10/03 01:52:03;;;;;;;8.15;4.03;;;16.60;99.90;;;;;;5071389;28;20094;-54
2022/10/03 01:54:35;;;;;;;8.77;4.38;;;16.60;99.90;;;;;;5071319;28;20111;-52
2022/10/03 01:57:34;;;;;;;7.13;4.90;;;16.50;99.90;;;;;;5070844;28;20115;-53
2022/10/03 02:00:09;;;;;;;7.53;4.97;;;16.50;99.90;;;;;;5070128;28;20166;-54
2022/10/03 02:03:11;;;;;;;8.35;4.82;;;16.20;99.90;;;;;;5071444;28;20048;-52
2022/10/03 02:05:40;;;;;;;11.10;4.72;;;16.30;99.90;;;;;;5071459;28;20052;-54
2022/10/03 02:08:43;;;;;;;6.22;3.90;;;16.40;99.90;;;;;;5072229;28;20055;-54
2022/10/03 02:11:21;;;;;;;7.13;4.25;;;16.40;99.90;;;;;;5075525;28;20024;-54
2022/10/03 02:14:00;;;;;;;4.65;2.83;;;16.30;99.90;;;;;;5075771;28;20035;-53
2022/10/03 02:16:42;;;;;;;5.00;2.55;;;16.20;99.90;;;;;;5075323;28;20480;-54
2022/10/03 02:19:11;;;;;;;4.95;2.30;;;16.20;99.90;;;;;;5074713;28;20079;-53
2022/10/03 02:21:49;;;;;;;5.47;2.67;;;16.30;99.90;;;;;;5075338;28;20031;-52
2022/10/03 02:24:15;;;;;;;4.88;2.05;;;16.20;99.90;;;;;;5076182;28;20472;-53
2022/10/03 02:27:01;;;;;;;3.97;1.95;;;16.10;99.90;;;;;;5056770;28;20081;-52
2022/10/03 02:29:57;;;;;;;3.83;2.20;;;16.00;99.90;;;;;;5067923;28;20033;-52
2022/10/03 02:32:42;;;;;;;8.25;2.13;;;16.00;99.90;;;;;;5073820;28;20028;-52
2022/10/03 02:35:09;;;;;;;5.63;2.15;;;16.10;99.90;;;;;;5074946;28;20024;-52
2022/10/03 02:37:53;;;;;;;5.28;2.47;;;16.10;99.90;;;;;;5075392;28;20380;-54
2022/10/03 02:40:38;;;;;;;4.78;2.20;;;16.00;99.90;;;;;;5075360;28;20119;-53
2022/10/03 02:43:16;;;;;;;3.42;2.42;;;;;;;;;;5074264;28;20027;-54
2022/10/03 02:45:59;;;;;;;4.30;2.42;;;15.90;99.90;;;;;;5075983;28;20511;-52
2022/10/03 02:48:51;;;;;;;6.03;2.58;;;15.70;99.90;;;;;;5075392;28;20093;-52
2022/10/03 02:51:41;;;;;;;5.72;2.58;;;15.70;99.90;;;;;;5013215;28;20068;-54
2022/10/03 02:54:27;;;;;;;5.60;2.28;;;15.70;99.90;;;;;;5012813;28;20026;-53
2022/10/03 02:57:15;;;;;;;4.38;2.13;;;15.60;99.90;;;;;;4936589;29;20031;-52
2022/10/03 03:00:02;;;;;;;4.20;2.33;;;15.50;99.90;;;;;;4936465;29;20534;-53
2022/10/03 03:02:36;;;;;;;5.22;2.58;;;15.60;99.90;;;;;;4936075;29;20055;-56
2022/10/03 03:05:02;;;;;;;5.22;2.40;;;15.70;99.90;;;;;;4936605;29;20027;-54
2022/10/03 03:07:58;;;;;;;4.70;2.70;;;16.00;99.90;;;;;;4936656;29;20489;-56
2022/10/03 03:10:33;;;;;;;7.07;2.90;;;15.90;99.90;;;;;;4936078;29;20082;-52
2022/10/03 03:12:58;;;;;;;4.13;2.38;;;16.00;99.90;;;;;;4936216;29;20110;-56
2022/10/03 03:16:04;;;;;;;5.97;2.47;;;15.90;99.90;;;;;;4935814;29;20469;-53
2022/10/03 03:18:35;;;;;;;8.02;2.38;;;15.90;99.90;;;;;;4936843;29;20040;-55
2022/10/03 03:21:26;;;;;;;10.35;2.63;;;15.90;99.90;;;;;;4933267;29;20055;-55
2022/10/03 03:24:16;;;;;;;5.65;2.60;;;15.90;99.90;;;;;;4936060;29;20097;-52
2022/10/03 03:27:09;;;;;;;4.18;2.38;;;16.00;99.90;;;;;;4933255;29;20067;-54
2022/10/03 03:30:01;;;;;;;5.78;2.75;;;15.90;99.90;;;;;;5012620;28;20105;-54
2022/10/03 03:32:39;;;;;;;5.40;2.70;;;15.90;99.90;;;;;;5001838;28;20052;-52
2022/10/03 03:35:24;;;;;;;4.90;2.40;;;15.90;99.90;;;;;;5070725;28;20104;-52
2022/10/03 03:37:53;;;;;;;4.57;2.47;;;16.00;99.90;;;;;;5032193;28;20456;-53
2022/10/03 03:40:46;;;;;;;4.22;2.45;;;15.90;99.90;;;;;;5031621;28;20464;-52
2022/10/03 03:43:33;;;;;;;6.20;2.60;;;15.90;99.90;;;;;;5031659;28;20524;-54
2022/10/03 03:46:11;;;;;;;4.68;2.72;;;15.90;99.90;;;;;;5031374;28;20103;-53
2022/10/03 03:48:46;;;;;;;7.03;2.42;;;15.90;99.90;;;;;;4981972;28;20026;-52
2022/10/03 03:51:45;;;;;;;9.90;2.83;;;15.80;99.90;;;;;;5031171;28;20579;-53
2022/10/03 03:54:37;;;;;;;4.63;2.55;;;15.80;99.90;;;;;;4973169;28;20073;-51
2022/10/03 03:57:21;;;;;;;4.60;2.35;;;15.80;99.90;;;;;;4970002;28;20510;-52
2022/10/03 04:00:04;;;;;;;2.28;1.80;;;15.70;99.90;;;;;;4973676;28;20062;-55
2022/10/03 04:02:30;;;;;;;5.70;2.22;;;15.70;99.90;;;;;;4971510;28;20126;-52
2022/10/03 04:05:07;;;;;;;3.53;2.30;;;15.60;99.90;;;;;;4972796;28;20126;-52
2022/10/03 04:08:10;;;;;;;3.20;1.95;;;15.60;99.90;;;;;;4972808;28;20146;-52
2022/10/03 04:10:45;;;;;;;3.63;2.20;;;15.60;99.90;;;;;;4970655;28;20041;-54
2022/10/03 04:13:28;;;;;;;3.45;2.03;;;15.50;99.90;;;;;;4973089;28;20034;-51
2022/10/03 04:18:56;;;;;;;4.53;1.83;;;15.60;99.90;;;;;;4989951;28;20042;-53
2022/10/03 04:19:18;;;;;;;4.47;1.85;;;15.60;99.90;;;;;;4992006;28;20497;-52
2022/10/03 04:21:54;;;;;;;5.18;1.90;;;15.60;99.90;;;;;;4993017;28;20031;-54
2022/10/03 04:24:53;;;;;;;4.03;1.83;;;15.60;99.90;;;;;;4992136;28;20505;-52
2022/10/03 04:27:33;;;;;;;2.75;1.52;;;15.50;99.90;;;;;;4991639;28;20126;-52
2022/10/03 04:30:14;;;;;;;3.53;1.30;;;15.50;99.90;;;;;;4988829;28;20145;-53
2022/10/03 04:33:06;;;;;;;3.30;1.77;;;15.40;99.90;;;;;;5050000;28;20036;-51
2022/10/03 04:35:56;;;;;;;3.95;1.80;;;15.50;99.90;;;;;;5056799;28;20043;-52
2022/10/03 04:38:53;;;;;;;2.90;1.45;;;15.50;99.90;;;;;;5072890;28;20024;-53
2022/10/03 04:41:44;;;;;;;2.90;1.45;;;15.50;99.90;;;;;;4990293;28;20542;-52
2022/10/03 04:44:46;;;;;;;3.65;1.75;;;15.50;99.90;;;;;;4990838;28;20022;-51
2022/10/03 04:47:26;;;;;;;3.95;1.65;;;15.50;99.90;;;;;;4991388;28;20408;-51
2022/10/03 04:50:10;;;;;;;3.13;1.58;;;15.50;99.90;;;;;;4992422;28;20033;-52
2022/10/03 04:52:56;;;;;;;3.65;1.83;;;15.50;99.90;;;;;;4990251;28;20512;-53
2022/10/03 04:55:38;;;;;;;4.38;2.58;;;15.50;99.90;;;;;;4991497;28;20045;-52
2022/10/03 04:58:14;;;;;;;3.00;2.03;;;15.60;99.90;;;;;;4990548;28;20077;-54
2022/10/03 05:01:04;;;;;;;3.75;2.35;;;15.60;99.90;;;;;;4986126;28;20132;-51
2022/10/03 05:03:43;;;;;;;3.65;2.25;;;15.80;99.90;;;;;;4985876;28;20030;-52
2022/10/03 05:06:22;;;;;;;4.78;1.65;;;15.80;99.90;;;;;;4990991;28;20038;-53
2022/10/03 05:09:26;;;;;;;3.03;1.58;;;15.80;99.90;;;;;;4991185;28;20105;-53
2022/10/03 05:12:15;;;;;;;4.18;1.60;;;15.80;99.90;;;;;;4934923;29;20365;-52
2022/10/03 05:15:09;;;;;;;3.42;1.60;;;15.80;99.90;;;;;;4942312;29;20032;-52
2022/10/03 05:17:53;;;;;;;2.45;1.20;;;;;;;;;;4949867;28;20421;-51
2022/10/03 05:20:22;;;;;;;2.45;1.67;;;;;;;;;;5000843;28;20038;-53
2022/10/03 05:22:56;;;;;;;2.25;1.30;;;;;;;;;;4999256;28;20081;-52
2022/10/03 05:25:41;;;;;;;1.52;1.20;;;;;;;;;;4993306;28;20049;-53
2022/10/03 05:28:21;;;;;;;2.67;1.35;;;15.60;99.90;;;;;;5000613;28;20049;-52
2022/10/03 05:31:16;;;;;;;2.83;1.70;;;15.50;99.90;;;;;;4999928;28;20022;-51
2022/10/03 05:33:53;;;;;;;2.65;1.90;;;15.50;99.90;;;;;;4928006;29;20032;-53
2022/10/03 05:36:54;;;;;;;4.68;3.05;;;15.50;99.90;;;;;;4935470;29;20114;-51
2022/10/03 05:39:25;;;;;;;2.20;2.00;;;15.50;99.90;;;;;;4893672;29;20036;-52
2022/10/03 05:42:15;;;;;;;10.67;1.70;;;15.60;99.90;;;;;;4894706;29;20040;-53
2022/10/03 05:45:20;;;;;;;2.20;1.50;;;15.60;99.90;;;;;;4878176;29;20279;-52
2022/10/03 05:48:09;;;;;;;3.35;1.38;;;15.60;99.90;;;;;;4906051;29;20040;-53
2022/10/03 05:51:12;;;;;;;2.40;1.45;;;15.70;99.90;;;;;;4910378;29;20037;-53
2022/10/03 05:54:16;;;;;;;3.67;1.70;;;15.70;99.90;;;;;;4918986;29;20036;-53
2022/10/03 05:57:06;;;;;;;2.65;1.52;;;15.80;99.90;;;;;;4904624;29;20482;-53
2022/10/03 05:59:31;;;;;;;3.45;1.98;;;15.90;99.90;;;;;;4919730;29;20044;-52
2022/10/03 06:02:00;;;;;;;2.78;1.48;;;16.00;99.90;;;;;;4925153;29;20527;-52
2022/10/03 06:05:00;;;;;;;3.03;2.10;;;16.20;99.90;;;;;;4914305;29;20048;-53
2022/10/03 06:07:33;;;;;;;4.75;1.50;;;16.30;99.90;;;;;;4914466;29;20031;-53
2022/10/03 06:10:07;;;;;;;4.07;1.70;;;16.50;99.90;;;;;;4928757;28;20150;-54
2022/10/03 06:12:41;;;;;;;2.28;1.45;;;16.70;99.90;;;;;;4921612;28;20398;-53
2022/10/03 06:15:34;;;;;;;2.15;1.55;;;16.90;99.90;;;;;;4970592;28;20038;-56
2022/10/03 06:18:02;;;;;;;3.42;2.10;;;17.20;99.90;;;;;;5008816;28;20072;-56
2022/10/03 06:20:54;;;;;;;5.18;2.95;;;17.20;99.90;;;;;;5016801;28;20033;-56
2022/10/03 06:23:40;;;;;;;3.30;2.00;;;17.30;99.90;;;;;;4953574;28;20039;-55
2022/10/03 06:26:12;;;;;;;3.05;2.00;;;17.50;99.90;;;;;;5008501;28;20341;-55
2022/10/03 06:29:04;;;;;;;2.55;2.03;;;17.70;99.90;;;;;;5006946;28;20049;-55
2022/10/03 06:31:50;;;;;;;;;;;17.70;99.90;;;;;;5005826;28;20048;-55
2022/10/03 06:35:03;;;;;;;3.10;2.70;;;17.70;99.90;;;;;;4951547;29;19938;-56
2022/10/03 06:38:01;;;;;;;3.38;2.42;;;17.90;99.90;;;;;;4951219;29;20039;-55
2022/10/03 06:40:30;;;;;;;3.50;2.03;;;18.10;99.90;;;;;;4949589;29;20107;-56
2022/10/03 06:42:59;;;;;;;5.32;2.20;;;17.80;99.90;;;;;;4948290;29;20106;-56
2022/10/03 06:46:10;;;;;;;3.05;2.13;;;17.90;99.90;;;;;;4950247;29;20045;-56
2022/10/03 06:49:05;;;;;;;3.03;2.17;;;18.00;99.90;;;;;;4950183;29;20050;-56
2022/10/03 06:52:00;;;;;;;7.10;2.67;;;17.80;99.90;;;;;;4945494;29;20424;-56
2022/10/03 06:54:47;;;;;;;3.72;2.30;;;17.90;99.90;;;;;;4931116;29;20387;-56
2022/10/03 06:57:28;;;;;;;3.30;2.53;;;18.20;99.90;;;;;;4953589;29;20041;-56
2022/10/03 07:00:25;;;;;;;4.35;2.28;;;18.50;99.90;;;;;;4971988;28;20108;-56
2022/10/03 07:03:10;;;;;;;4.70;2.33;;;;;;;;;;5010256;28;20049;-55
2022/10/03 07:05:56;;;;;;;3.47;2.40;;;18.80;99.90;;;;;;5010782;28;20073;-54
2022/10/03 07:08:34;;;;;;;4.53;2.20;;;18.60;99.90;;;;;;5004311;28;20068;-54
2022/10/03 07:11:03;;;;;;;2.55;1.98;;;18.30;99.90;;;;;;5030167;28;20381;-54
2022/10/03 07:13:33;;;;;;;3.63;2.20;;;;;;;;;;5070323;28;20056;-54
2022/10/03 07:16:23;;;;;;;5.22;2.30;;;20.10;99.90;;;;;;5073865;28;20031;-54
2022/10/03 07:19:33;;;;;;;2.53;1.70;;;20.40;99.90;;;;;;5071534;28;20024;-54
2022/10/03 07:22:37;;;;;;;5.63;1.90;;;21.20;99.90;;;;;;5067003;28;20032;-54
2022/10/03 07:25:13;;;;;;;2.47;2.00;;;20.40;99.90;;;;;;5070993;28;20025;-54
2022/10/03 07:27:44;;;;;;;5.68;2.38;;;19.20;99.90;;;;;;5071197;28;20025;-54
2022/10/03 07:30:24;;;;;;;3.80;2.08;;;19.00;99.90;;;;;;5074213;28;20035;-53
2022/10/03 07:33:26;;;;;;;2.50;1.70;;;19.40;99.90;;;;;;5074643;28;20115;-53
2022/10/03 07:39:50;;;;;;;4.20;2.15;;;20.00;99.90;;;;;;5069950;28;20198;-54
2022/10/03 07:42:49;;;;;;;3.80;1.75;;;20.50;99.90;;;;;;5010849;28;20050;-53
2022/10/03 07:45:29;;;;;;;5.88;1.70;;;20.80;99.90;;;;;;5011140;28;20099;-53
2022/10/03 07:48:07;;;;;;;3.17;1.63;;;20.70;99.90;;;;;;5007368;28;20033;-56
2022/10/03 07:50:36;;;;;;;5.18;2.40;;;20.60;99.90;;;;;;5005853;28;20030;-54
2022/10/03 07:53:59;;;;;;;5.13;1.80;;;20.50;99.90;;;;;;5012072;28;20125;-53
2022/10/03 07:56:45;;;;;;;3.40;1.80;;;20.80;99.90;;;;;;4915524;29;20043;-55
2022/10/03 07:59:54;;;;;;;3.95;2.05;;;20.90;99.90;;;;;;4919720;29;20173;-52
2022/10/03 08:02:54;;;;;;;4.80;1.80;;;21.80;99.90;;;;;;4910525;29;20520;-53
2022/10/03 08:05:32;;;;;;;5.32;2.15;;;22.40;99.90;;;;;;4920979;29;20032;-54
2022/10/03 08:08:32;;;;;;;4.38;2.00;;;21.20;99.90;;;;;;4928683;29;20106;-54
2022/10/03 08:11:09;;;;;;;5.10;1.73;;;21.20;99.90;;;;;;4913014;29;20031;-53
2022/10/03 08:14:02;;;;;;;4.45;2.58;;;20.80;99.90;;;;;;4915490;29;20118;-53
2022/10/03 08:16:51;;;;;;;5.05;2.28;;;;;;;;;;4918381;29;20409;-53
2022/10/03 08:19:40;;;;;;;2.85;1.60;;;;;;;;;;4963059;28;20038;-53
2022/10/03 08:22:25;;;;;;;6.00;2.10;;;;;;;;;;4932552;29;20053;-55
2022/10/03 08:24:57;;;;;;;2.25;1.50;;;;;;;;;;4934904;29;20476;-53
2022/10/03 08:27:35;;;;;;;1.90;1.45;;;;;;;;;;4968924;28;20034;-53
2022/10/03 08:30:32;;;;;;;3.13;1.85;;;25.50;99.90;;;;;;4987941;28;20038;-52
2022/10/03 08:33:17;;;;;;;4.10;1.77;;;24.20;99.90;;;;;;4949881;29;20391;-53
2022/10/03 08:36:01;;;;;;;4.13;2.50;;;23.90;99.90;;;;;;4953256;29;20399;-53
2022/10/03 08:38:32;;;;;;;3.47;1.83;;;24.00;99.90;;;;;;4953525;29;20055;-53
2022/10/03 08:41:19;;;;;;;2.20;1.15;;;23.70;99.90;;;;;;4952707;29;20435;-53
2022/10/03 08:44:02;;;;;;;3.22;1.92;;;22.60;99.90;;;;;;4948555;29;20031;-54
2022/10/03 08:46:57;;;;;;;3.85;1.55;;;21.80;99.90;;;;;;4949548;29;20039;-55
2022/10/03 08:49:50;;;;;;;3.42;1.70;;;21.40;99.90;;;;;;4950998;29;20087;-55
2022/10/03 08:52:35;;;;;;;5.57;1.73;;;20.60;99.90;;;;;;4952471;29;20189;-55
2022/10/03 08:55:32;;;;;;;2.90;1.80;;;20.80;99.90;;;;;;4952423;29;20126;-55
2022/10/03 08:58:18;;;;;;;4.90;1.50;;;21.60;99.90;;;;;;4953643;28;20538;-53
2022/10/03 09:01:22;;;;;;;8.98;1.67;;;21.60;99.90;;;;;;5006810;28;20054;-55
2022/10/03 09:04:14;;;;;;;3.13;1.35;;;21.20;99.90;;;;;;5010283;28;20068;-54
2022/10/03 09:07:30;;;;;;;4.95;2.20;;;20.60;99.90;;;;;;5006404;28;20029;-55
2022/10/03 09:10:51;;;;;;;5.00;1.83;;;21.10;99.90;;;;;;5028345;28;20481;-53
2022/10/03 09:13:54;;;;;;;3.05;1.45;;;22.00;99.90;;;;;;5051010;28;20032;-53
2022/10/03 09:16:38;;;;;;;;;;;21.80;99.90;;;;;;5046914;28;20029;-54
2022/10/03 09:19:09;;;;;;;1.58;1.35;;;21.00;99.90;;;;;;5050436;28;19960;-54
2022/10/03 09:21:47;;;;;;;3.20;1.23;;;20.70;99.90;;;;;;5053343;28;20147;-54
2022/10/03 09:24:46;;;;;;;4.78;1.30;;;20.50;99.90;;;;;;5052153;28;20047;-53
2022/10/03 09:27:31;;;;;;;2.80;1.25;;;20.20;99.90;;;;;;5034646;28;20048;-53
2022/10/03 09:30:18;;;;;;;4.70;1.50;;;20.30;99.90;;;;;;5050703;28;20451;-53
2022/10/03 09:33:16;;;;;;;2.85;1.70;;;20.20;99.90;;;;;;5051606;28;20059;-52
2022/10/03 09:36:00;;;;;;;3.53;1.77;;;20.60;99.90;;;;;;4988817;28;20057;-54
2022/10/03 09:38:50;;;;;;;5.13;2.47;;;21.10;99.90;;;;;;4989971;28;20042;-53
2022/10/03 09:42:00;;;;;;;4.03;1.60;;;21.80;99.90;;;;;;5004354;28;20053;-53
2022/10/03 09:44:53;;;;;;;5.25;1.40;;;22.40;99.90;;;;;;4984081;28;20030;-53
2022/10/03 09:47:22;;;;;;;4.15;1.08;;;;;;;;;;5002852;28;20157;-52
2022/10/03 09:49:56;;;;;;;3.47;1.42;;;22.80;99.90;;;;;;5005416;28;20049;-53
2022/10/03 09:52:49;;;;;;;3.03;1.25;;;22.80;99.90;;;;;;5009311;28;20551;-53
2022/10/03 09:56:00;;;;;;;3.03;1.00;;;23.30;99.90;;;;;;5001624;28;20041;-54
2022/10/03 09:58:40;;;;;;;3.22;1.08;;;22.80;99.90;;;;;;5006453;28;20034;-55
2022/10/03 10:01:09;;;;;;;4.72;1.05;;;22.90;99.90;;;;;;5006801;28;20619;-53
2022/10/03 10:04:12;;;;;;;2.47;1.10;;;22.30;99.90;;;;;;5002934;28;20022;-54
2022/10/03 10:06:50;;;;;;;2.88;1.10;;;21.40;99.90;;;;;;5008550;28;20030;-53
2022/10/03 10:09:49;;;;;;;4.28;1.30;;;20.90;99.90;;;;;;4991158;28;20397;-53
2022/10/03 10:12:56;;;;;;;3.85;1.30;;;20.80;99.90;;;;;;5061458;28;20116;-53
2022/10/03 10:15:58;;;;;;;2.45;0.98;;;20.70;99.90;;;;;;5000641;28;20033;-52
2022/10/03 10:18:30;;;;;;;3.35;1.20;;;20.20;99.90;;;;;;5004092;28;20089;-51
2022/10/03 10:21:11;;;;;;;2.15;1.50;;;;;;;;;;5005020;28;20221;-52
2022/10/03 10:23:56;;;;;;;4.50;1.97;;;21.10;99.90;;;;;;5009350;28;20044;-52
2022/10/03 10:26:43;;;;;;;3.80;1.13;;;21.20;99.90;;;;;;5006454;28;21037;-52
2022/10/03 10:29:15;;;;;;;3.08;1.30;;;21.80;99.90;;;;;;5006466;28;20046;-52
2022/10/03 10:32:00;;;;;;;;;;;21.80;99.90;;;;;;5013753;28;20595;-52
2022/10/03 10:34:37;;;;;;;1.77;0.98;;;21.60;99.90;;;;;;5008520;28;19909;-52
2022/10/03 10:37:53;;;;;;;3.70;1.75;;;21.10;99.90;;;;;;5003259;28;20038;-52
2022/10/03 10:40:42;;;;;;;7.90;2.08;;;21.40;99.90;;;;;;5008126;28;20063;-53
2022/10/03 10:43:32;;;;;;;4.45;0.98;;;21.70;99.90;;;;;;5006197;28;20061;-53
2022/10/03 10:46:25;;;;;;;4.10;1.50;;;21.70;99.90;;;;;;5005636;28;20037;-53
2022/10/03 10:49:18;;;;;;;4.10;0.95;;;21.70;99.90;;;;;;5027576;28;20032;-53
2022/10/03 10:51:44;;;;;;;3.13;1.45;;;21.20;99.90;;;;;;5073848;28;20039;-52
2022/10/03 10:54:47;;;;;;;6.38;1.20;;;21.30;99.90;;;;;;5075296;28;20028;-51
2022/10/03 10:57:51;;;;;;;4.07;1.02;;;20.90;99.90;;;;;;5073019;28;20024;-51
2022/10/03 11:00:47;;;;;;;2.28;1.00;;;21.00;99.90;;;;;;5075054;28;20032;-51
2022/10/03 11:03:49;;;;;;;3.85;1.58;;;20.60;99.90;;;;;;5074499;28;20033;-51
2022/10/03 11:06:30;;;;;;;1.80;0.77;;;20.80;99.90;;;;;;5028098;28;20217;-51
2022/10/03 11:09:01;;;;;;;7.47;1.65;;;20.80;99.90;;;;;;5031241;28;20451;-51
2022/10/03 11:12:12;;;;;;;2.50;1.25;;;20.70;99.90;;;;;;5031717;28;20470;-52
2022/10/03 11:15:06;;;;;;;2.55;0.90;;;20.50;99.90;;;;;;5027607;28;20037;-52
2022/10/03 11:18:03;;;;;;;3.55;0.75;;;19.80;99.90;;;;;;5032199;28;20071;-52
2022/10/03 11:21:06;;;;;;;2.45;1.40;;;19.40;99.90;;;;;;5032311;28;20048;-52
2022/10/03 11:23:40;;;;;;;2.30;0.75;;;19.80;99.90;;;;;;5026170;28;20029;-52
2022/10/03 11:26:43;;;;;;;1.77;0.95;;;20.00;99.90;;;;;;5032417;28;20030;-52
2022/10/03 11:30:01;;;;;;;0.77;0.77;;;20.40;99.90;;;;;;5028627;28;20038;-52
2022/10/03 11:32:45;;;;;;;1.65;1.20;;;20.60;99.90;;;;;;4935471;29;20530;-52
2022/10/03 11:35:30;;;;;;;1.80;0.77;;;;;;;;;;4934712;29;20039;-52
2022/10/03 11:38:02;;;;;;;4.03;1.00;;;21.60;99.90;;;;;;4935175;29;20032;-51
2022/10/03 11:40:58;;;;;;;2.65;0.90;;;21.10;99.90;;;;;;4969408;28;20478;-52
2022/10/03 11:43:47;;;;;;;4.57;1.48;;;20.90;99.90;;;;;;4984602;28;20042;-52
2022/10/03 11:46:21;;;;;;;3.83;1.00;;;;;;;;;;4992146;28;20030;-52
2022/10/03 11:49:03;;;;;;;5.45;1.10;;;21.80;99.90;;;;;;4993503;28;20035;-52
2022/10/03 11:51:31;;;;;;;;;;;21.50;99.90;;;;;;4992808;28;20038;-53
2022/10/03 11:54:24;;;;;;;3.58;0.77;;;21.90;99.90;;;;;;4992766;28;19906;-53
2022/10/03 11:57:06;;;;;;;2.47;0.65;;;21.50;99.90;;;;;;4989131;28;20035;-52
2022/10/03 11:59:59;;;;;;;4.43;1.20;;;20.60;99.90;;;;;;4989038;28;21183;-53
2022/10/03 12:02:28;;;;;;;4.78;1.60;;;20.10;99.90;;;;;;4990827;28;20049;-52
2022/10/03 12:05:33;;;;;;;3.22;1.33;;;19.80;99.90;;;;;;4990382;28;20030;-52
2022/10/03 12:11:40;;;;;;;4.00;1.50;;;19.50;99.90;;;;;;4986959;28;20133;-51
2022/10/03 12:14:09;;;;;;;4.32;1.35;;;19.40;99.90;;;;;;4989052;28;20034;-52
2022/10/03 12:16:56;;;;;;;2.13;1.00;;;20.10;99.90;;;;;;4989969;28;20528;-52
2022/10/03 12:19:41;;;;;;;2.38;1.20;;;20.50;99.90;;;;;;4972057;28;20398;-51
2022/10/03 12:22:21;;;;;;;3.30;1.20;;;21.40;99.90;;;;;;4990473;28;20038;-51
2022/10/03 12:24:49;;;;;;;4.13;1.35;;;21.30;99.90;;;;;;4991799;28;20037;-51
2022/10/03 12:27:15;;;;;;;5.68;1.20;;;20.80;99.90;;;;;;4991812;28;20030;-51
2022/10/03 12:29:47;;;;;;;0.30;0.30;;;20.40;99.90;;;;;;4990680;28;20046;-51
2022/10/03 12:32:13;;;;;;;2.85;0.60;;;19.80;99.90;;;;;;4991517;28;20034;-55
2022/10/03 12:34:41;;;;;;;6.20;1.17;;;19.50;99.90;;;;;;4986531;28;20046;-55
2022/10/03 12:37:41;;;;;;;4.30;1.17;;;19.60;99.90;;;;;;4991397;28;20045;-55
2022/10/03 12:40:29;;;;;;;3.70;1.10;;;19.80;99.90;;;;;;4986266;28;20030;-55
2022/10/03 12:43:21;;;;;;;2.10;0.63;;;19.70;99.90;;;;;;5008892;28;20090;-55
2022/10/03 12:46:01;;;;;;;1.67;0.70;;;19.50;99.40;;;;;;5071356;28;20107;-55
2022/10/03 12:48:45;;;;;;;2.60;0.90;;;19.30;99.90;;;;;;5073273;28;20032;-54
2022/10/03 12:51:32;;;;;;;1.63;0.50;;;19.10;99.90;;;;;;5051922;28;20042;-55
2022/10/03 12:54:06;;;;;;;3.08;0.82;;;18.90;99.90;;;;;;5070599;28;20028;-54
2022/10/03 12:56:35;;;;;;;3.22;0.77;;;18.80;99.90;;;;;;5072423;28;20086;-54
2022/10/03 12:59:30;;;;;;;2.38;0.68;;;18.80;99.90;;;;;;5072900;28;20431;-55
2022/10/03 13:02:04;;;;;;;3.78;1.50;;;18.80;99.90;;;;;;5064979;28;20050;-56
2022/10/03 13:04:54;;;;;;;3.70;1.25;;;18.70;99.90;;;;;;5070311;28;20039;-55
2022/10/03 13:07:51;;;;;;;1.63;0.70;;;18.70;99.90;;;;;;5067639;28;20501;-54
2022/10/03 13:10:41;;;;;;;2.83;1.05;;;18.40;99.90;;;;;;5068959;28;20064;-55
2022/10/03 13:13:24;;;;;;;2.60;0.50;;;18.20;99.90;;;;;;5070803;28;20452;-55
2022/10/03 13:16:30;;;;;;;1.65;0.73;;;18.00;99.90;;;;;;5067446;28;20089;-55
2022/10/03 13:19:13;;;;;;;1.23;0.68;;;18.00;99.90;;;;;;5068436;28;20111;-55
2022/10/03 13:22:26;;;;;;;1.40;0.35;;;18.00;99.90;;;;;;5071372;28;20043;-55
2022/10/03 13:25:24;;;;;;;2.30;0.60;;;18.10;99.90;;;;;;4984562;28;20034;-55
2022/10/03 13:28:07;;;;;;;2.17;0.80;;;18.60;99.90;;;;;;4988146;28;20256;-55
2022/10/03 13:31:26;;;;;;;3.00;0.90;;;18.60;99.90;;;;;;4937467;28;20073;-54
2022/10/03 13:33:59;;;;;;;1.63;0.60;;;18.70;99.90;;;;;;4986795;28;20127;-55
2022/10/03 13:36:49;;;;;;;1.52;0.52;;;19.00;99.90;;;;;;4988823;28;20050;-55
2022/10/03 13:39:33;;;;;;;3.50;0.90;;;19.50;99.90;;;;;;4956911;28;20061;-55
2022/10/03 13:42:28;;;;;;;2.38;0.90;;;20.10;99.90;;;;;;4979920;28;20053;-55
2022/10/03 13:44:59;;;;;;;3.92;0.90;;;19.90;99.90;;;;;;4988690;28;20054;-55
2022/10/03 13:48:07;;;;;;;6.72;0.90;;;19.90;99.90;;;;;;4987266;28;20030;-55
2022/10/03 13:50:43;;;;;;;3.78;0.80;;;20.20;99.90;;;;;;4987512;28;20039;-55
2022/10/03 13:53:30;;;;;;;1.70;0.60;;;20.20;98.80;;;;;;4978638;28;20054;-55
2022/10/03 13:56:03;;;;;;;1.20;0.50;;;20.50;98.60;;;;;;4985038;28;20704;-55
2022/10/03 13:58:35;;;;;;;0.80;0.47;;;20.60;98.40;;;;;;5022274;28;20060;-55
2022/10/03 14:01:40;;;;;;;4.75;1.05;;;20.20;97.90;;;;;;5068436;28;20051;-55
2022/10/03 14:04:30;;;;;;;2.78;0.60;;;19.80;98.80;;;;;;5025157;28;20157;-55
2022/10/03 14:07:14;;;;;;;1.58;0.50;;;19.30;98.70;;;;;;5029064;28;20278;-56
2022/10/03 14:09:42;;;;;;;1.10;0.68;;;19.00;99.20;;;;;;5029789;28;20041;-55
2022/10/03 14:12:14;;;;;;;1.63;0.80;;;19.20;99.90;;;;;;5028640;28;20552;-55
2022/10/03 14:15:01;;;;;;;7.68;3.42;;;19.20;99.60;;;;;;5033276;28;20038;-55
2022/10/03 14:17:33;;;;;;;8.23;4.25;;;19.50;99.60;;;;;;5029160;28;20105;-56
2022/10/03 14:20:40;;;;;;;3.85;3.05;;;19.30;98.80;;;;;;5028361;28;20120;-55
2022/10/03 14:23:29;;;;;;;2.83;1.10;;;19.20;99.60;;;;;;5026189;28;20080;-56
2022/10/03 14:26:24;;;;;;;1.27;0.80;;;19.20;99.00;;;;;;5025828;28;20044;-54
2022/10/03 14:29:33;;;;;;;3.08;1.00;;;19.40;99.30;;;;;;5032703;28;20069;-55
2022/10/03 14:32:25;;;;;;;2.72;0.60;;;19.40;99.50;;;;;;4952685;28;20181;-54
2022/10/03 14:35:09;;;;;;;3.67;1.10;;;19.30;99.50;;;;;;4907974;29;20449;-54
2022/10/03 14:37:55;;;;;;;1.15;0.50;;;19.60;99.10;;;;;;4915188;29;20158;-54
2022/10/03 14:40:42;;;;;;;2.72;0.75;;;19.50;97.90;;;;;;4915202;29;20047;-54
2022/10/03 14:43:28;;;;;;;3.58;0.98;;;19.40;99.00;;;;;;4915662;29;20112;-54